Borger, Netherlands
Current Conditions -  °F | °C
As of 1:25 PM on Sunday 23 Nov 2014 (Local Time) from EHGG Reporting Station
Clear Clear  
Wind Chill: 55°   Ceiling: Unl
Heat Index: 55°   Visibility: 6mi
Dew Point: 50°   Wind: 7mph
Humidity: 82%   Direction: 170°S
Pressure: 29.97"   Gusts: NA
Location:  52.92°N, 6.79°E
Report Text: EHGG 231225Z AUTO 17006KT 130V190 9999 NCD 13/10 Q1015 NOSIG
Loading
Personal Weather Stations






























Interactive Weather Map New forecast layout! Learn more

10-Day Weather Forecast

Advertisements
Track Severe Weather on mobile